Time;durP1;ratioP1;P1;durP2;ratioP2;P2;SDS_P1;SDS_P2;PMS_P1;PMS_P2;Temp;Humidity;BMP_temperature;BMP_pressure;BME280_temperature;BME280_humidity;BME280_pressure;Samples;Min_cycle;Max_cycle;Signal;HPM_P1;HPM_P2
2023/06/17 00:03:25;;;;;;;;;;;;;;;22.93;35.71;95648.88;10298127;28;1878;-65
2023/06/17 00:08:25;;;;;;;;;;;;;;;22.94;35.84;95652.28;10306370;28;2013;-67
2023/06/17 00:13:26;;;;;;;;;;;;;;;22.92;35.98;95647.31;10308299;28;1878;-67
2023/06/17 00:18:28;;;;;;;;;;;;;;;22.93;35.94;95640.94;10302092;28;1905;-67
2023/06/17 00:23:28;;;;;;;;;;;;;;;22.93;36.00;95635.66;10301639;28;1936;-67
2023/06/17 00:28:29;;;;;;;;;;;;;;;22.94;36.03;95637.22;10301045;28;2674;-67
2023/06/17 00:33:29;;;;;;;;;;;;;;;22.95;35.86;95635.38;10302486;28;1917;-67
2023/06/17 00:38:29;;;;;;;;;;;;;;;22.96;35.97;95626.34;10300608;28;1907;-67
2023/06/17 00:43:29;;;;;;;;;;;;;;;22.95;35.91;95622.94;10305653;28;1954;-67
2023/06/17 00:48:30;;;;;;;;;;;;;;;22.96;36.08;95634.28;10304827;28;1946;-67
2023/06/17 00:53:30;;;;;;;;;;;;;;;22.97;36.18;95622.66;10304324;28;1925;-67
2023/06/17 00:58:30;;;;;;;;;;;;;;;22.96;36.17;95623.69;10302454;28;2005;-67
2023/06/17 01:03:31;;;;;;;;;;;;;;;22.97;36.23;95630.56;10303399;28;2141;-66
2023/06/17 01:08:37;;;;;;;;;;;;;;;22.96;36.35;95627.13;10298248;28;2203;-66
2023/06/17 01:13:37;;;;;;;;;;;;;;;22.97;36.37;95630.56;10305053;28;1983;-66
2023/06/17 01:18:40;;;;;;;;;;;;;;;22.97;36.27;95630.56;10296597;28;1951;-66
2023/06/17 01:23:41;;;;;;;;;;;;;;;22.97;36.14;95625.28;10300920;28;2242;-66
2023/06/17 01:28:44;;;;;;;;;;;;;;;22.97;36.39;95622.66;10303549;28;1960;-66
2023/06/17 01:33:45;;;;;;;;;;;;;;;22.97;36.45;95617.34;10300241;28;1978;-66
2023/06/17 01:38:52;;;;;;;;;;;;;;;22.98;36.19;95626.88;10302619;28;2132;-66
2023/06/17 01:43:52;;;;;;;;;;;;;;;22.97;36.16;95635.84;10300253;28;5012;-66
2023/06/17 01:48:53;;;;;;;;;;;;;;;22.96;36.42;95627.13;10299067;28;2013;-66
2023/06/17 01:53:54;;;;;;;;;;;;;;;22.96;36.25;95632.44;10302246;28;1966;-66
2023/06/17 01:58:55;;;;;;;;;;;;;;;22.97;36.38;95633.22;10300115;28;2257;-66
2023/06/17 02:03:55;;;;;;;;;;;;;;;22.96;36.15;95631.63;10308258;28;1994;-66
2023/06/17 02:08:55;;;;;;;;;;;;;;;22.96;36.45;95626.34;10306289;28;1910;-66
2023/06/17 02:13:56;;;;;;;;;;;;;;;22.96;36.05;95621.06;10308556;28;1881;-66
2023/06/17 02:18:56;;;;;;;;;;;;;;;22.97;36.32;95627.94;10308303;28;2269;-66
2023/06/17 02:23:56;;;;;;;;;;;;;;;22.95;36.42;95620.28;10299684;28;1977;-66
2023/06/17 02:28:57;;;;;;;;;;;;;;;22.97;36.42;95620.00;10309869;28;1935;-66
2023/06/17 02:33:57;;;;;;;;;;;;;;;22.96;36.43;95623.69;10313277;28;1979;-66
2023/06/17 02:38:57;;;;;;;;;;;;;;;22.96;36.33;95631.63;10306852;28;1914;-66
2023/06/17 02:43:57;;;;;;;;;;;;;;;22.96;36.25;95623.69;10308297;28;4635;-66
2023/06/17 02:48:58;;;;;;;;;;;;;;;22.96;36.55;95626.34;10303771;28;1906;-66
2023/06/17 02:53:58;;;;;;;;;;;;;;;22.96;36.52;95626.34;10305654;28;1870;-66
2023/06/17 02:58:59;;;;;;;;;;;;;;;22.96;36.46;95631.63;10299149;28;1967;-66
2023/06/17 03:04:01;;;;;;;;;;;;;;;22.95;36.42;95633.53;10306431;28;1947;-67
2023/06/17 03:09:03;;;;;;;;;;;;;;;22.95;36.37;95635.38;10304855;28;2018;-66
2023/06/17 03:14:03;;;;;;;;;;;;;;;22.94;36.46;95629.28;10303272;28;2424;-66
2023/06/17 03:19:03;;;;;;;;;;;;;;;22.95;36.29;95632.72;10309285;28;1950;-66
2023/06/17 03:24:04;;;;;;;;;;;;;;;22.95;36.47;95636.16;10312286;28;1869;-65
2023/06/17 03:29:04;;;;;;;;;;;;;;;22.94;36.45;95628.50;10304643;28;1958;-65
2023/06/17 03:34:04;;;;;;;;;;;;;;;22.94;36.52;95629.28;10304256;28;1912;-65
2023/06/17 03:39:04;;;;;;;;;;;;;;;22.95;36.37;95632.72;10307570;28;1953;-65
2023/06/17 03:44:05;;;;;;;;;;;;;;;22.95;36.12;95635.38;10309668;28;4694;-65
2023/06/17 03:49:05;;;;;;;;;;;;;;;22.94;36.41;95620.56;10305674;28;1910;-65
2023/06/17 03:54:05;;;;;;;;;;;;;;;22.94;36.33;95623.22;10306138;28;1924;-65
2023/06/17 03:59:05;;;;;;;;;;;;;;;22.93;36.41;95626.94;10297876;28;1981;-65
2023/06/17 04:04:06;;;;;;;;;;;;;;;22.93;36.36;95626.94;10303290;28;1858;-65
2023/06/17 04:09:06;;;;;;;;;;;;;;;22.95;36.53;95640.66;10304765;28;2326;-65
2023/06/17 04:14:06;;;;;;;;;;;;;;;22.94;36.25;95642.50;10301857;28;1942;-65
2023/06/17 04:19:09;;;;;;;;;;;;;;;22.93;36.30;95640.94;10302235;28;1894;-65
2023/06/17 04:24:09;;;;;;;;;;;;;;;22.93;36.43;95648.09;10296697;28;1962;-64
2023/06/17 04:29:10;;;;;;;;;;;;;;;22.94;36.48;95649.66;10312184;28;1973;-66
2023/06/17 04:34:21;;;;;;;;;;;;;;;22.94;36.55;95649.66;10305005;28;2021;-66
2023/06/17 04:39:22;;;;;;;;;;;;;;;22.94;36.50;95642.50;10310813;28;1830;-66
2023/06/17 04:44:22;;;;;;;;;;;;;;;22.93;36.58;95643.59;10310719;28;4469;-66
2023/06/17 04:49:22;;;;;;;;;;;;;;;22.94;36.59;95639.06;10312708;28;1891;-66
2023/06/17 04:54:24;;;;;;;;;;;;;;;22.93;36.61;95637.53;10308545;28;1904;-66
2023/06/17 04:59:24;;;;;;;;;;;;;;;22.93;36.58;95637.53;10306979;28;1867;-66
2023/06/17 05:04:25;;;;;;;;;;;;;;;22.93;36.69;95642.81;10309503;28;2002;-66
2023/06/17 05:09:25;;;;;;;;;;;;;;;22.93;36.53;95642.81;10300908;28;2431;-65
2023/06/17 05:14:25;;;;;;;;;;;;;;;22.93;36.78;95648.88;10299690;28;1907;-66
2023/06/17 05:19:25;;;;;;;;;;;;;;;22.94;36.82;95650.44;10302247;28;1932;-66
2023/06/17 05:24:26;;;;;;;;;;;;;;;22.95;36.90;95653.88;10297174;28;2017;-66
2023/06/17 05:29:26;;;;;;;;;;;;;;;22.95;36.94;95659.16;10300317;28;1977;-66
2023/06/17 05:34:27;;;;;;;;;;;;;;;22.96;37.04;95658.06;10303282;28;1993;-66
2023/06/17 05:39:27;;;;;;;;;;;;;;;22.95;37.03;95653.88;10297816;28;1938;-66
2023/06/17 05:44:27;;;;;;;;;;;;;;;22.95;36.77;95659.16;10304359;28;4710;-65
2023/06/17 05:49:27;;;;;;;;;;;;;;;22.95;36.95;95654.66;10311577;28;2036;-66
2023/06/17 05:54:28;;;;;;;;;;;;;;;22.95;37.04;95661.81;10307487;28;2040;-66
2023/06/17 05:59:29;;;;;;;;;;;;;;;22.95;36.97;95661.81;10308462;28;1878;-65
2023/06/17 06:04:30;;;;;;;;;;;;;;;22.95;36.96;95656.50;10302531;28;2294;-65
2023/06/17 06:09:30;;;;;;;;;;;;;;;22.96;36.98;95663.34;10317004;28;1929;-66
2023/06/17 06:14:30;;;;;;;;;;;;;;;22.95;36.98;95669.72;10313254;28;1973;-65
2023/06/17 06:19:30;;;;;;;;;;;;;;;22.95;37.02;95665.22;10304775;28;2034;-66
2023/06/17 06:24:31;;;;;;;;;;;;;;;22.95;37.15;95667.09;10314631;28;1829;-66
2023/06/17 06:29:31;;;;;;;;;;;;;;;22.95;37.01;95672.38;10311078;28;1891;-66
2023/06/17 06:34:31;;;;;;;;;;;;;;;22.96;36.90;95674.72;10312070;28;1905;-66
2023/06/17 06:39:31;;;;;;;;;;;;;;;22.97;37.16;95686.09;10311909;28;1989;-66
2023/06/17 06:44:32;;;;;;;;;;;;;;;22.96;37.05;95684.50;10304641;28;4698;-66
2023/06/17 06:49:33;;;;;;;;;;;;;;;22.97;37.04;95688.72;10300268;28;1925;-66
2023/06/17 06:54:33;;;;;;;;;;;;;;;22.97;36.94;95681.59;10306728;28;1924;-66
2023/06/17 06:59:33;;;;;;;;;;;;;;;22.97;37.00;95684.22;10309907;28;2316;-66
2023/06/17 07:04:34;;;;;;;;;;;;;;;22.97;37.10;95686.09;10313934;28;2005;-65
2023/06/17 07:09:34;;;;;;;;;;;;;;;22.96;36.88;95676.56;10306171;28;2011;-66
2023/06/17 07:14:35;;;;;;;;;;;;;;;22.98;37.02;95688.44;10310094;28;1902;-66
2023/06/17 07:19:35;;;;;;;;;;;;;;;22.97;37.29;95691.38;10303513;28;2013;-66
2023/06/17 07:24:36;;;;;;;;;;;;;;;22.99;37.26;95697.94;10306346;28;1886;-66
2023/06/17 07:29:36;;;;;;;;;;;;;;;22.99;37.20;95689.22;10305437;28;1983;-66
2023/06/17 07:34:36;;;;;;;;;;;;;;;22.98;37.03;95685.78;10307906;28;1897;-65
2023/06/17 07:39:37;;;;;;;;;;;;;;;22.99;37.33;95692.66;10312196;28;1881;-66
2023/06/17 07:44:37;;;;;;;;;;;;;;;22.99;37.13;95681.28;10297647;28;4687;-66
2023/06/17 07:49:38;;;;;;;;;;;;;;;22.99;37.12;95687.38;10304824;28;2027;-65
2023/06/17 07:54:39;;;;;;;;;;;;;;;22.99;37.00;95679.44;10302706;28;2254;-65
2023/06/17 07:59:41;;;;;;;;;;;;;;;23.01;37.33;95676.50;10307270;28;1947;-65
2023/06/17 08:04:41;;;;;;;;;;;;;;;22.97;37.41;95673.66;10299932;28;1926;-65
2023/06/17 08:09:41;;;;;;;;;;;;;;;23.00;37.32;95673.06;10298501;28;1962;-65
2023/06/17 08:14:41;;;;;;;;;;;;;;;23.00;37.42;95670.41;10300955;28;1935;-65
2023/06/17 08:19:42;;;;;;;;;;;;;;;23.01;37.42;95669.34;10298026;28;2183;-65
2023/06/17 08:24:42;;;;;;;;;;;;;;;23.00;37.51;95667.00;10299527;28;1932;-66
2023/06/17 08:29:43;;;;;;;;;;;;;;;23.00;37.19;95659.84;10288015;28;1939;-65
2023/06/17 08:34:43;;;;;;;;;;;;;;;23.02;37.22;95651.66;10303932;28;1933;-65
2023/06/17 08:39:43;;;;;;;;;;;;;;;23.01;37.49;95660.63;10301980;28;2021;-65
2023/06/17 08:44:44;;;;;;;;;;;;;;;23.03;37.43;95658.50;10299418;28;4660;-65
2023/06/17 08:49:45;;;;;;;;;;;;;;;23.03;37.28;95650.56;10316601;28;1906;-65
2023/06/17 08:54:45;;;;;;;;;;;;;;;23.04;37.31;95644.22;10299988;28;2467;-65
2023/06/17 08:59:46;;;;;;;;;;;;;;;23.03;37.34;95647.91;10288371;28;2017;-65
2023/06/17 09:04:46;;;;;;;;;;;;;;;23.02;37.17;95635.78;10303007;28;1955;-65
2023/06/17 09:09:47;;;;;;;;;;;;;;;23.04;37.18;95641.56;10299655;28;2050;-64
2023/06/17 09:14:48;;;;;;;;;;;;;;;23.06;37.54;95642.06;10301163;28;1994;-65
2023/06/17 09:19:48;;;;;;;;;;;;;;;23.07;38.07;95643.59;10303981;28;1894;-64
2023/06/17 09:24:48;;;;;;;;;;;;;;;23.07;38.27;95639.13;10300016;28;1981;-65
2023/06/17 09:30:04;;;;;;;;;;;;;;;23.10;37.98;95640.41;10300105;28;2011;-65
2023/06/17 09:35:05;;;;;;;;;;;;;;;23.10;38.05;95633.22;10299793;28;1940;-60
2023/06/17 09:40:06;;;;;;;;;;;;;;;23.11;38.03;95636.66;10300555;28;2001;-65
2023/06/17 09:45:08;;;;;;;;;;;;;;;23.11;38.46;95629.53;10299215;28;4651;-65
2023/06/17 09:50:09;;;;;;;;;;;;;;;23.12;38.23;95620.50;10296374;28;2296;-63
2023/06/17 09:55:09;;;;;;;;;;;;;;;23.13;38.56;95627.38;10302889;28;1889;-63
2023/06/17 10:00:10;;;;;;;;;;;;;;;23.13;38.33;95627.38;10285520;28;1982;-63
2023/06/17 10:05:15;;;;;;;;;;;;;;;23.13;38.06;95627.38;10286092;28;1914;-63
2023/06/17 10:10:16;;;;;;;;;;;;;;;23.14;37.91;95621.00;10300779;28;1981;-61
2023/06/17 10:15:17;;;;;;;;;;;;;;;23.15;38.25;95621.78;10284082;28;1885;-62
2023/06/17 10:20:17;;;;;;;;;;;;;;;23.14;38.10;95610.41;10301249;28;2065;-62
2023/06/17 10:25:18;;;;;;;;;;;;;;;23.14;37.99;95612.28;10289176;28;1903;-61
2023/06/17 10:30:24;;;;;;;;;;;;;;;23.14;38.20;95612.28;10303957;28;1973;-62
2023/06/17 10:35:40;;;;;;;;;;;;;;;23.14;38.12;95612.28;10307386;28;1921;-62
2023/06/17 10:40:46;;;;;;;;;;;;;;;23.15;38.05;95598.78;10302519;28;4619;-62
2023/06/17 10:45:47;;;;;;;;;;;;;;;23.16;38.45;95595.03;10295112;28;2038;-62
2023/06/17 10:50:56;;;;;;;;;;;;;;;23.18;39.05;95592.91;10307197;28;1948;-62
2023/06/17 10:55:57;;;;;;;;;;;;;;;23.19;39.15;95597.09;10300795;28;1874;-62
2023/06/17 11:00:58;;;;;;;;;;;;;;;23.21;39.23;95594.16;10304035;28;2233;-62
2023/06/17 11:05:59;;;;;;;;;;;;;;;23.21;38.97;95586.22;10306613;28;1930;-62
2023/06/17 11:11:19;;;;;;;;;;;;;;;23.23;39.22;95576.13;10294180;28;1939;-62
2023/06/17 11:16:20;;;;;;;;;;;;;;;23.24;39.05;95572.44;10307185;28;2004;-62
2023/06/17 11:21:20;;;;;;;;;;;;;;;23.25;39.41;95572.13;10297993;28;1958;-62
2023/06/17 11:26:20;;;;;;;;;;;;;;;23.25;39.16;95558.13;10303121;28;2226;-62
2023/06/17 11:31:25;;;;;;;;;;;;;;;23.26;39.28;95573.72;10287237;28;1981;-62
2023/06/17 11:36:26;;;;;;;;;;;;;;;23.26;39.37;95557.84;10304739;28;1985;-62
2023/06/17 11:41:27;;;;;;;;;;;;;;;23.27;39.00;95559.41;10299956;28;4729;-62
2023/06/17 11:46:27;;;;;;;;;;;;;;;23.27;39.24;95558.59;10301043;28;1977;-62
2023/06/17 11:51:27;;;;;;;;;;;;;;;23.27;39.06;95543.53;10300901;28;1982;-62
2023/06/17 11:56:28;;;;;;;;;;;;;;;23.27;38.82;95534.81;10304848;28;1944;-63
2023/06/17 12:01:28;;;;;;;;;;;;;;;23.27;39.11;95532.16;10302350;28;1969;-62
2023/06/17 12:06:28;;;;;;;;;;;;;;;23.28;39.08;95523.94;10303155;28;2012;-61
2023/06/17 12:11:30;;;;;;;;;;;;;;;23.28;38.86;95525.81;10303686;28;1905;-62
2023/06/17 12:16:31;;;;;;;;;;;;;;;23.28;38.86;95518.66;10302913;28;1889;-61
2023/06/17 12:21:31;;;;;;;;;;;;;;;23.29;38.96;95520.22;10299047;28;1878;-62
2023/06/17 12:26:31;;;;;;;;;;;;;;;23.28;38.96;95507.28;10302312;28;1990;-61
2023/06/17 12:31:31;;;;;;;;;;;;;;;23.28;38.79;95510.72;10301867;28;1910;-63
2023/06/17 12:36:32;;;;;;;;;;;;;;;23.27;38.60;95501.22;10300018;28;2273;-62
2023/06/17 12:41:32;;;;;;;;;;;;;;;23.27;38.88;95490.63;10299626;28;4513;-62
2023/06/17 12:46:35;;;;;;;;;;;;;;;23.28;38.82;95494.06;10301647;28;1916;-61
2023/06/17 12:51:35;;;;;;;;;;;;;;;23.27;38.63;95487.19;10301144;28;1885;-61
2023/06/17 12:56:35;;;;;;;;;;;;;;;23.29;38.80;95487.69;10303259;28;1874;-61
2023/06/17 13:01:36;;;;;;;;;;;;;;;23.29;38.42;95487.69;10294446;28;2332;-62
2023/06/17 13:06:37;;;;;;;;;;;;;;;23.29;38.58;95490.34;10281188;28;1990;-62
2023/06/17 13:11:37;;;;;;;;;;;;;;;23.29;38.61;95490.34;10294229;28;1898;-62
2023/06/17 13:16:38;;;;;;;;;;;;;;;23.31;38.79;95488.16;10298497;28;1970;-62
2023/06/17 13:21:38;;;;;;;;;;;;;;;23.30;38.85;95484.78;10301238;28;1940;-61
2023/06/17 13:26:39;;;;;;;;;;;;;;;23.31;39.02;95485.53;10302689;28;1900;-63
2023/06/17 13:31:39;;;;;;;;;;;;;;;23.32;38.63;95484.50;10302169;28;2345;-63
2023/06/17 13:36:44;;;;;;;;;;;;;;;23.31;38.67;95486.31;10297837;28;1964;-63
2023/06/17 13:41:45;;;;;;;;;;;;;;;23.32;38.60;95484.50;10300990;28;4445;-63
2023/06/17 13:46:46;;;;;;;;;;;;;;;23.32;38.80;95487.94;10294097;28;2307;-63
2023/06/17 13:51:47;;;;;;;;;;;;;;;23.32;38.85;95487.94;10300959;28;1882;-62
2023/06/17 13:56:48;;;;;;;;;;;;;;;23.36;39.66;95478.31;10300801;28;1869;-62
2023/06/17 14:01:48;;;;;;;;;;;;;;;23.34;39.84;95474.41;10300581;28;1922;-62
2023/06/17 14:06:49;;;;;;;;;;;;;;;23.30;39.70;95476.03;10281590;28;1961;-62
2023/06/17 14:11:50;;;;;;;;;;;;;;;23.27;40.15;95466.84;10303535;28;1989;-63
2023/06/17 14:16:50;;;;;;;;;;;;;;;23.28;40.15;95464.97;10305564;28;2017;-62
2023/06/17 14:22:00;;;;;;;;;;;;;;;23.27;40.55;95461.53;10303022;28;1924;-62
2023/06/17 14:27:19;;;;;;;;;;;;;;;23.28;40.24;95459.69;10306419;28;1947;-62
2023/06/17 14:32:19;;;;;;;;;;;;;;;23.26;40.13;95461.84;10313329;28;2953;-61
2023/06/17 14:37:19;;;;;;;;;;;;;;;23.24;40.08;95459.50;10303458;28;1970;-61
2023/06/17 14:42:19;;;;;;;;;;;;;;;23.29;40.81;95445.38;10304622;28;4401;-62
2023/06/17 14:47:20;;;;;;;;;;;;;;;23.31;41.00;95445.84;10311606;28;1970;-62
2023/06/17 14:52:20;;;;;;;;;;;;;;;23.31;40.83;95445.84;10302063;28;1988;-64
2023/06/17 14:57:21;;;;;;;;;;;;;;;23.33;41.44;95446.38;10307153;28;2021;-60
2023/06/17 15:02:31;;;;;;;;;;;;;;;23.36;41.28;95445.78;10299795;28;2050;-60
2023/06/17 15:07:31;;;;;;;;;;;;;;;23.39;42.66;95451.25;10297262;28;1994;-60
2023/06/17 15:12:31;;;;;;;;;;;;;;;23.46;42.62;95440.28;10308234;28;1981;-59
2023/06/17 15:17:31;;;;;;;;;;;;;;;23.48;42.51;95438.09;10309446;28;1926;-60
2023/06/17 15:22:32;;;;;;;;;;;;;;;23.46;42.52;95442.91;10315348;28;1491;-60
2023/06/17 15:27:32;;;;;;;;;;;;;;;23.46;42.72;95445.56;10311252;28;2506;-60
2023/06/17 15:32:32;;;;;;;;;;;;;;;23.44;43.05;95442.44;10312307;28;1863;-60
2023/06/17 15:37:33;;;;;;;;;;;;;;;23.45;43.10;95428.13;10306938;28;1996;-60
2023/06/17 15:42:33;;;;;;;;;;;;;;;23.45;43.24;95428.13;10298666;28;4593;-61
2023/06/17 15:47:33;;;;;;;;;;;;;;;23.46;43.30;95429.69;10299628;28;1999;-60
2023/06/17 15:52:34;;;;;;;;;;;;;;;23.47;43.09;95441.06;10301352;28;1938;-60
2023/06/17 15:57:35;;;;;;;;;;;;;;;23.46;43.03;95427.03;10305488;28;1899;-61
2023/06/17 16:02:35;;;;;;;;;;;;;;;23.47;43.31;95441.06;10294321;28;1976;-60
2023/06/17 16:07:35;;;;;;;;;;;;;;;23.48;43.71;95432.03;10307451;28;2131;-60
2023/06/17 16:12:37;;;;;;;;;;;;;;;23.47;43.49;95425.97;10299093;28;1983;-60
2023/06/17 16:17:39;;;;;;;;;;;;;;;23.45;43.81;95442.13;10306767;28;1983;-60
2023/06/17 16:22:39;;;;;;;;;;;;;;;23.46;43.63;95440.28;10297337;28;2290;-60
2023/06/17 16:27:39;;;;;;;;;;;;;;;23.44;43.43;95429.22;10318697;28;1903;-60
2023/06/17 16:32:40;;;;;;;;;;;;;;;23.43;43.43;95425.00;10301289;28;1939;-60
2023/06/17 16:37:40;;;;;;;;;;;;;;;23.40;43.11;95426.38;10303388;28;1976;-60
2023/06/17 16:42:40;;;;;;;;;;;;;;;23.40;42.99;95423.75;10301505;28;4566;-60
2023/06/17 16:47:41;;;;;;;;;;;;;;;23.36;42.36;95429.91;10302428;28;1970;-60
2023/06/17 16:52:41;;;;;;;;;;;;;;;;;;10293705;28;2066;-59
2023/06/17 16:57:41;;;;;;;;;;;;;;;23.32;41.78;95431.59;10295250;28;1965;-60
2023/06/17 17:02:41;;;;;;;;;;;;;;;23.25;40.41;95437.25;10298758;28;1991;-59
2023/06/17 17:07:42;;;;;;;;;;;;;;;23.21;40.20;95440.78;10297579;28;1972;-60
2023/06/17 17:12:42;;;;;;;;;;;;;;;23.19;40.42;95446.38;10299425;28;1986;-60
2023/06/17 17:17:42;;;;;;;;;;;;;;;23.20;40.74;95441.88;10301403;28;2513;-59
2023/06/17 17:22:43;;;;;;;;;;;;;;;23.20;40.81;95437.38;10298798;28;1992;-59
2023/06/17 17:27:43;;;;;;;;;;;;;;;23.21;40.84;95438.94;10288660;28;1930;-60
2023/06/17 17:32:44;;;;;;;;;;;;;;;23.22;40.72;95439.72;10301056;28;1937;-60
2023/06/17 17:37:45;;;;;;;;;;;;;;;23.21;40.80;95438.94;10304570;28;1871;-61
2023/06/17 17:42:45;;;;;;;;;;;;;;;23.21;40.48;95433.66;10292184;28;4480;-60
2023/06/17 17:47:45;;;;;;;;;;;;;;;23.19;39.62;95441.09;10309167;28;1903;-61
2023/06/17 17:52:46;;;;;;;;;;;;;;;23.14;38.90;95448.38;10310871;28;1847;-59
2023/06/17 17:57:46;;;;;;;;;;;;;;;23.12;38.86;95450.53;10303339;28;1986;-61
2023/06/17 18:02:47;;;;;;;;;;;;;;;23.09;38.26;95459.03;10306150;28;2061;-60
2023/06/17 18:07:47;;;;;;;;;;;;;;;23.06;38.27;95463.03;10309797;28;2058;-59
2023/06/17 18:12:47;;;;;;;;;;;;;;;23.01;37.48;95467.66;10305252;28;2535;-58
2023/06/17 18:17:49;;;;;;;;;;;;;;;23.01;37.79;95475.59;10300160;28;1998;-60
2023/06/17 18:22:51;;;;;;;;;;;;;;;23.00;38.24;95469.50;10305734;28;1949;-60
2023/06/17 18:27:51;;;;;;;;;;;;;;;23.04;38.04;95469.72;10304614;28;1974;-60
2023/06/17 18:32:51;;;;;;;;;;;;;;;23.05;38.64;95481.84;10308387;28;1866;-60
2023/06/17 18:37:52;;;;;;;;;;;;;;;23.06;38.65;95483.44;10307423;28;1955;-60
2023/06/17 18:42:52;;;;;;;;;;;;;;;23.06;38.72;95483.44;10309166;28;4453;-60
2023/06/17 18:47:52;;;;;;;;;;;;;;;23.06;38.64;95486.84;10310736;28;2069;-59
2023/06/17 18:52:52;;;;;;;;;;;;;;;23.08;38.99;95478.63;10302501;28;1916;-59
2023/06/17 18:57:53;;;;;;;;;;;;;;;23.09;38.67;95490.75;10306246;28;2022;-59
2023/06/17 19:02:53;;;;;;;;;;;;;;;23.10;38.97;95489.69;10305028;28;1980;-60
2023/06/17 19:07:53;;;;;;;;;;;;;;;23.10;39.11;95502.91;10303306;28;1938;-60
2023/06/17 19:12:53;;;;;;;;;;;;;;;23.11;39.19;95507.91;10312746;28;2297;-60
2023/06/17 19:17:54;;;;;;;;;;;;;;;23.13;39.25;95511.03;10309367;28;1933;-60
2023/06/17 19:22:55;;;;;;;;;;;;;;;23.13;39.21;95515.53;10310638;28;1814;-60
2023/06/17 19:27:55;;;;;;;;;;;;;;;23.13;39.34;95518.97;10304880;28;1920;-60
2023/06/17 19:32:55;;;;;;;;;;;;;;;23.14;39.03;95522.41;10306631;28;1898;-60
2023/06/17 19:37:55;;;;;;;;;;;;;;;23.15;39.02;95523.94;10297195;28;2067;-60
2023/06/17 19:42:56;;;;;;;;;;;;;;;23.16;39.14;95533.47;10292977;28;4523;-60
2023/06/17 19:47:57;;;;;;;;;;;;;;;23.16;39.58;95533.47;10298826;28;2042;-59
2023/06/17 19:52:58;;;;;;;;;;;;;;;23.15;39.30;95532.66;10298289;28;1966;-60
2023/06/17 19:57:58;;;;;;;;;;;;;;;23.17;39.42;95533.16;10298180;28;1950;-60
2023/06/17 20:02:58;;;;;;;;;;;;;;;23.17;39.60;95535.81;10302022;28;1996;-60
2023/06/17 20:07:59;;;;;;;;;;;;;;;23.19;39.50;95538.94;10303606;28;1953;-61
2023/06/17 20:12:59;;;;;;;;;;;;;;;23.20;39.69;95547.66;10311739;28;1925;-60
2023/06/17 20:17:59;;;;;;;;;;;;;;;23.20;39.59;95537.88;10298752;28;1937;-60
2023/06/17 20:22:59;;;;;;;;;;;;;;;23.20;39.82;95540.50;10299052;28;1934;-60
2023/06/17 20:28:00;;;;;;;;;;;;;;;23.20;39.58;95543.16;10304966;28;1979;-60
2023/06/17 20:33:00;;;;;;;;;;;;;;;23.21;39.62;95543.91;10300009;28;1961;-60
2023/06/17 20:38:01;;;;;;;;;;;;;;;23.20;39.90;95543.16;10302273;28;1916;-60
2023/06/17 20:43:01;;;;;;;;;;;;;;;23.21;39.82;95538.63;10297432;28;1954;-60
2023/06/17 20:48:02;;;;;;;;;;;;;;;23.21;39.77;95538.63;10302889;28;2028;-59
2023/06/17 20:53:02;;;;;;;;;;;;;;;23.22;39.96;95545.50;10299831;28;2001;-60
2023/06/17 20:58:02;;;;;;;;;;;;;;;23.20;39.62;95537.88;10304256;28;1919;-59
2023/06/17 21:03:02;;;;;;;;;;;;;;;23.22;39.89;95545.50;10303980;28;2317;-60
2023/06/17 21:08:03;;;;;;;;;;;;;;;23.22;39.79;95545.50;10304706;28;1964;-60
2023/06/17 21:13:03;;;;;;;;;;;;;;;23.22;40.11;95548.94;10300319;28;1927;-60
2023/06/17 21:18:04;;;;;;;;;;;;;;;23.23;39.96;95555.78;10294268;28;1905;-61
2023/06/17 21:23:04;;;;;;;;;;;;;;;23.17;38.42;95551.66;10301614;28;1905;-61
2023/06/17 21:28:04;;;;;;;;;;;;;;;23.08;37.45;95547.38;10299127;28;1904;-61
2023/06/17 21:33:05;;;;;;;;;;;;;;;23.02;37.01;95543.25;10297169;28;2063;-63
2023/06/17 21:38:05;;;;;;;;;;;;;;;22.97;37.15;95554.72;10286270;28;1999;-63
2023/06/17 21:43:05;;;;;;;;;;;;;;;22.94;36.83;95552.63;10300026;28;4500;-63
2023/06/17 21:48:05;;;;;;;;;;;;;;;22.91;36.24;95549.81;10299768;28;1976;-62
2023/06/17 21:53:06;;;;;;;;;;;;;;;22.88;36.18;95550.38;10299103;28;1922;-63
2023/06/17 21:58:06;;;;;;;;;;;;;;;22.84;36.04;95567.88;10294950;28;2320;-63
2023/06/17 22:03:06;;;;;;;;;;;;;;;22.79;36.01;95560.06;10295785;28;1953;-63
2023/06/17 22:08:06;;;;;;;;;;;;;;;22.75;35.86;95562.50;10297784;28;1937;-63
2023/06/17 22:13:07;;;;;;;;;;;;;;;22.70;35.60;95561.81;10297084;28;2239;-63
2023/06/17 22:18:07;;;;;;;;;;;;;;;22.63;35.57;95564.81;10295669;28;2144;-62
2023/06/17 22:23:07;;;;;;;;;;;;;;;22.59;35.90;95562.00;10301777;28;1942;-62
2023/06/17 22:28:08;;;;;;;;;;;;;;;22.55;35.76;95565.47;10300091;28;1946;-63
2023/06/17 22:33:08;;;;;;;;;;;;;;;22.52;35.86;95558.91;10299022;28;2296;-63
2023/06/17 22:38:08;;;;;;;;;;;;;;;22.47;35.89;95564.28;10298049;28;1900;-63
2023/06/17 22:43:08;;;;;;;;;;;;;;;22.50;36.04;95555.75;10306512;28;4495;-63
2023/06/17 22:48:09;;;;;;;;;;;;;;;22.54;35.93;95555.97;10305614;28;1907;-63
2023/06/17 22:53:09;;;;;;;;;;;;;;;22.53;36.17;95555.19;10307504;28;2025;-63
2023/06/17 22:58:09;;;;;;;;;;;;;;;22.53;36.18;95563.13;10306839;28;3677;-63
2023/06/17 23:03:10;;;;;;;;;;;;;;;22.53;36.37;95568.41;10290317;28;2056;-63
2023/06/17 23:08:10;;;;;;;;;;;;;;;22.47;36.09;95566.91;10306334;28;1977;-63
2023/06/17 23:13:10;;;;;;;;;;;;;;;22.43;36.20;95565.94;10293121;28;1920;-63
2023/06/17 23:18:11;;;;;;;;;;;;;;;22.44;36.31;95556.91;10304971;28;2127;-63
2023/06/17 23:23:11;;;;;;;;;;;;;;;22.44;36.08;95561.44;10297576;28;2011;-63
2023/06/17 23:28:11;;;;;;;;;;;;;;;22.41;36.10;95562.00;10307362;28;1966;-63
2023/06/17 23:33:13;;;;;;;;;;;;;;;22.39;36.38;95558.88;10305253;28;2080;-63
2023/06/17 23:38:13;;;;;;;;;;;;;;;22.40;36.73;95557.81;10300014;28;2135;-63
2023/06/17 23:43:15;;;;;;;;;;;;;;;22.38;36.67;95560.72;10300298;28;4519;-63
2023/06/17 23:48:15;;;;;;;;;;;;;;;22.38;36.54;95550.16;10300181;28;1976;-63
2023/06/17 23:53:18;;;;;;;;;;;;;;;22.35;36.74;95548.09;10306820;28;2035;-63
2023/06/17 23:58:19;;;;;;;;;;;;;;;22.31;36.60;95546.31;10304692;28;1874;-63
